sensor_id;sensor_type;location;lat;lon;timestamp;P1;durP1;ratioP1;P2;durP2;ratioP2
36191;SDS011;22233;42.708;23.360;2022-08-07T00:01:39;9.80;;;8.15;;
36191;SDS011;22233;42.708;23.360;2022-08-07T00:04:04;10.30;;;8.73;;
36191;SDS011;22233;42.708;23.360;2022-08-07T00:06:30;8.95;;;7.90;;
36191;SDS011;22233;42.708;23.360;2022-08-07T00:08:56;9.18;;;7.50;;
36191;SDS011;22233;42.708;23.360;2022-08-07T00:11:21;8.93;;;7.53;;
36191;SDS011;22233;42.708;23.360;2022-08-07T00:13:47;8.30;;;7.40;;
36191;SDS011;22233;42.708;23.360;2022-08-07T00:16:12;9.10;;;7.40;;
36191;SDS011;22233;42.708;23.360;2022-08-07T00:18:38;10.73;;;7.28;;
36191;SDS011;22233;42.708;23.360;2022-08-07T00:21:05;10.15;;;7.85;;
36191;SDS011;22233;42.708;23.360;2022-08-07T00:23:33;11.98;;;7.82;;
36191;SDS011;22233;42.708;23.360;2022-08-07T00:26:00;8.93;;;8.02;;
36191;SDS011;22233;42.708;23.360;2022-08-07T00:28:27;9.10;;;7.90;;
36191;SDS011;22233;42.708;23.360;2022-08-07T00:30:54;7.95;;;7.15;;
36191;SDS011;22233;42.708;23.360;2022-08-07T00:33:19;8.35;;;7.07;;
36191;SDS011;22233;42.708;23.360;2022-08-07T00:35:50;8.27;;;7.47;;
36191;SDS011;22233;42.708;23.360;2022-08-07T00:38:16;9.75;;;7.22;;
36191;SDS011;22233;42.708;23.360;2022-08-07T00:40:42;8.85;;;6.90;;
36191;SDS011;22233;42.708;23.360;2022-08-07T00:43:08;12.50;;;8.02;;
36191;SDS011;22233;42.708;23.360;2022-08-07T00:45:35;8.82;;;7.93;;
36191;SDS011;22233;42.708;23.360;2022-08-07T00:48:00;8.18;;;7.40;;
36191;SDS011;22233;42.708;23.360;2022-08-07T00:50:26;12.27;;;7.85;;
36191;SDS011;22233;42.708;23.360;2022-08-07T00:52:51;9.57;;;8.45;;
36191;SDS011;22233;42.708;23.360;2022-08-07T00:55:17;9.52;;;8.57;;
36191;SDS011;22233;42.708;23.360;2022-08-07T00:57:42;8.13;;;7.32;;
36191;SDS011;22233;42.708;23.360;2022-08-07T01:00:08;9.00;;;8.13;;
36191;SDS011;22233;42.708;23.360;2022-08-07T01:02:34;8.85;;;8.00;;
36191;SDS011;22233;42.708;23.360;2022-08-07T01:04:59;8.57;;;7.65;;
36191;SDS011;22233;42.708;23.360;2022-08-07T01:07:30;8.93;;;8.02;;
36191;SDS011;22233;42.708;23.360;2022-08-07T01:09:56;9.13;;;8.15;;
36191;SDS011;22233;42.708;23.360;2022-08-07T01:12:22;8.20;;;7.40;;
36191;SDS011;22233;42.708;23.360;2022-08-07T01:14:47;9.70;;;8.75;;
36191;SDS011;22233;42.708;23.360;2022-08-07T01:17:13;10.38;;;8.30;;
36191;SDS011;22233;42.708;23.360;2022-08-07T01:19:39;9.57;;;7.97;;
36191;SDS011;22233;42.708;23.360;2022-08-07T01:22:05;9.38;;;8.05;;
36191;SDS011;22233;42.708;23.360;2022-08-07T01:24:31;8.48;;;7.78;;
36191;SDS011;22233;42.708;23.360;2022-08-07T01:26:58;8.48;;;7.53;;
36191;SDS011;22233;42.708;23.360;2022-08-07T01:29:24;9.37;;;7.83;;
36191;SDS011;22233;42.708;23.360;2022-08-07T01:31:51;10.95;;;8.02;;
36191;SDS011;22233;42.708;23.360;2022-08-07T01:34:17;8.48;;;7.68;;
36191;SDS011;22233;42.708;23.360;2022-08-07T01:36:43;9.85;;;7.25;;
36191;SDS011;22233;42.708;23.360;2022-08-07T01:39:09;7.57;;;6.82;;
36191;SDS011;22233;42.708;23.360;2022-08-07T01:41:36;8.57;;;7.78;;
36191;SDS011;22233;42.708;23.360;2022-08-07T01:44:03;10.07;;;7.80;;
36191;SDS011;22233;42.708;23.360;2022-08-07T01:46:28;11.07;;;7.82;;
36191;SDS011;22233;42.708;23.360;2022-08-07T01:48:54;12.00;;;8.27;;
36191;SDS011;22233;42.708;23.360;2022-08-07T01:51:20;9.75;;;8.10;;
36191;SDS011;22233;42.708;23.360;2022-08-07T01:53:54;9.75;;;7.70;;
36191;SDS011;22233;42.708;23.360;2022-08-07T01:56:26;8.68;;;7.78;;
36191;SDS011;22233;42.708;23.360;2022-08-07T01:58:57;9.55;;;8.65;;
36191;SDS011;22233;42.708;23.360;2022-08-07T02:01:27;11.52;;;8.98;;
36191;SDS011;22233;42.708;23.360;2022-08-07T02:04:06;10.70;;;8.68;;
36191;SDS011;22233;42.708;23.360;2022-08-07T02:06:35;10.88;;;9.38;;
36191;SDS011;22233;42.708;23.360;2022-08-07T02:09:04;12.57;;;8.90;;
36191;SDS011;22233;42.708;23.360;2022-08-07T02:11:37;11.23;;;9.23;;
36191;SDS011;22233;42.708;23.360;2022-08-07T02:14:05;9.68;;;8.68;;
36191;SDS011;22233;42.708;23.360;2022-08-07T02:16:33;13.13;;;8.57;;
36191;SDS011;22233;42.708;23.360;2022-08-07T02:19:02;10.75;;;8.35;;
36191;SDS011;22233;42.708;23.360;2022-08-07T02:21:30;10.32;;;8.57;;
36191;SDS011;22233;42.708;23.360;2022-08-07T02:23:56;14.55;;;8.15;;
36191;SDS011;22233;42.708;23.360;2022-08-07T02:26:23;16.05;;;10.00;;
36191;SDS011;22233;42.708;23.360;2022-08-07T02:28:50;12.60;;;9.55;;
36191;SDS011;22233;42.708;23.360;2022-08-07T02:31:17;8.88;;;7.78;;
36191;SDS011;22233;42.708;23.360;2022-08-07T02:33:44;11.98;;;9.15;;
36191;SDS011;22233;42.708;23.360;2022-08-07T02:36:11;9.27;;;8.32;;
36191;SDS011;22233;42.708;23.360;2022-08-07T02:38:37;9.38;;;8.00;;
36191;SDS011;22233;42.708;23.360;2022-08-07T02:41:04;9.90;;;8.27;;
36191;SDS011;22233;42.708;23.360;2022-08-07T02:43:31;11.57;;;8.20;;
36191;SDS011;22233;42.708;23.360;2022-08-07T02:46:00;11.77;;;10.65;;
36191;SDS011;22233;42.708;23.360;2022-08-07T02:48:28;12.93;;;9.20;;
36191;SDS011;22233;42.708;23.360;2022-08-07T02:50:54;10.55;;;9.48;;
36191;SDS011;22233;42.708;23.360;2022-08-07T02:53:25;14.68;;;12.95;;
36191;SDS011;22233;42.708;23.360;2022-08-07T02:55:56;9.93;;;8.35;;
36191;SDS011;22233;42.708;23.360;2022-08-07T02:58:23;8.68;;;7.85;;
36191;SDS011;22233;42.708;23.360;2022-08-07T03:00:51;10.38;;;8.48;;
36191;SDS011;22233;42.708;23.360;2022-08-07T03:03:20;9.05;;;8.15;;
36191;SDS011;22233;42.708;23.360;2022-08-07T03:05:48;9.75;;;8.75;;
36191;SDS011;22233;42.708;23.360;2022-08-07T03:08:15;12.77;;;9.32;;
36191;SDS011;22233;42.708;23.360;2022-08-07T03:10:41;10.37;;;9.43;;
36191;SDS011;22233;42.708;23.360;2022-08-07T03:13:09;10.52;;;9.52;;
36191;SDS011;22233;42.708;23.360;2022-08-07T03:15:36;11.98;;;9.75;;
36191;SDS011;22233;42.708;23.360;2022-08-07T03:18:01;10.70;;;9.60;;
36191;SDS011;22233;42.708;23.360;2022-08-07T03:20:27;11.80;;;10.55;;
36191;SDS011;22233;42.708;23.360;2022-08-07T03:22:53;12.18;;;10.38;;
36191;SDS011;22233;42.708;23.360;2022-08-07T03:25:19;10.25;;;9.32;;
36191;SDS011;22233;42.708;23.360;2022-08-07T03:27:47;11.55;;;10.35;;
36191;SDS011;22233;42.708;23.360;2022-08-07T03:30:14;10.75;;;9.63;;
36191;SDS011;22233;42.708;23.360;2022-08-07T03:32:40;13.18;;;11.88;;
36191;SDS011;22233;42.708;23.360;2022-08-07T03:35:17;13.45;;;10.88;;
36191;SDS011;22233;42.708;23.360;2022-08-07T03:37:49;11.77;;;10.52;;
36191;SDS011;22233;42.708;23.360;2022-08-07T03:40:18;10.82;;;9.48;;
36191;SDS011;22233;42.708;23.360;2022-08-07T03:42:44;12.20;;;10.90;;
36191;SDS011;22233;42.708;23.360;2022-08-07T03:45:10;11.25;;;10.15;;
36191;SDS011;22233;42.708;23.360;2022-08-07T03:47:36;12.05;;;10.80;;
36191;SDS011;22233;42.708;23.360;2022-08-07T03:50:02;14.52;;;11.05;;
36191;SDS011;22233;42.708;23.360;2022-08-07T03:52:28;11.32;;;10.23;;
36191;SDS011;22233;42.708;23.360;2022-08-07T03:54:58;10.25;;;9.15;;
36191;SDS011;22233;42.708;23.360;2022-08-07T03:57:25;10.77;;;9.68;;
36191;SDS011;22233;42.708;23.360;2022-08-07T03:59:51;9.70;;;8.80;;
36191;SDS011;22233;42.708;23.360;2022-08-07T04:02:19;11.07;;;10.00;;
36191;SDS011;22233;42.708;23.360;2022-08-07T04:04:44;11.23;;;9.75;;
36191;SDS011;22233;42.708;23.360;2022-08-07T04:07:10;8.55;;;7.65;;
36191;SDS011;22233;42.708;23.360;2022-08-07T04:09:36;10.65;;;9.68;;
36191;SDS011;22233;42.708;23.360;2022-08-07T04:12:04;11.82;;;9.13;;
36191;SDS011;22233;42.708;23.360;2022-08-07T04:14:29;10.65;;;9.55;;
36191;SDS011;22233;42.708;23.360;2022-08-07T04:16:56;11.05;;;9.95;;
36191;SDS011;22233;42.708;23.360;2022-08-07T04:19:21;8.50;;;7.70;;
36191;SDS011;22233;42.708;23.360;2022-08-07T04:21:49;8.63;;;7.82;;
36191;SDS011;22233;42.708;23.360;2022-08-07T04:24:15;8.50;;;7.70;;
36191;SDS011;22233;42.708;23.360;2022-08-07T04:26:41;8.35;;;7.53;;
36191;SDS011;22233;42.708;23.360;2022-08-07T04:29:06;9.05;;;8.18;;
36191;SDS011;22233;42.708;23.360;2022-08-07T04:31:38;8.93;;;8.00;;
36191;SDS011;22233;42.708;23.360;2022-08-07T04:34:05;13.75;;;8.68;;
36191;SDS011;22233;42.708;23.360;2022-08-07T04:36:31;11.75;;;9.00;;
36191;SDS011;22233;42.708;23.360;2022-08-07T04:38:58;18.73;;;11.23;;
36191;SDS011;22233;42.708;23.360;2022-08-07T04:41:24;9.13;;;7.97;;
36191;SDS011;22233;42.708;23.360;2022-08-07T04:43:50;8.50;;;7.70;;
36191;SDS011;22233;42.708;23.360;2022-08-07T04:59:56;9.43;;;7.28;;
36191;SDS011;22233;42.708;23.360;2022-08-07T05:02:26;10.65;;;7.97;;
36191;SDS011;22233;42.708;23.360;2022-08-07T05:05:08;8.25;;;7.45;;
36191;SDS011;22233;42.708;23.360;2022-08-07T05:07:51;9.18;;;8.27;;
36191;SDS011;22233;42.708;23.360;2022-08-07T05:10:23;11.02;;;8.73;;
36191;SDS011;22233;42.708;23.360;2022-08-07T05:15:30;8.80;;;7.85;;
36191;SDS011;22233;42.708;23.360;2022-08-07T05:18:08;8.13;;;7.15;;
36191;SDS011;22233;42.708;23.360;2022-08-07T05:20:41;7.93;;;7.22;;
36191;SDS011;22233;42.708;23.360;2022-08-07T05:23:15;8.25;;;6.20;;
36191;SDS011;22233;42.708;23.360;2022-08-07T05:25:44;8.05;;;7.25;;
36191;SDS011;22233;42.708;23.360;2022-08-07T05:28:12;8.00;;;7.20;;
36191;SDS011;22233;42.708;23.360;2022-08-07T05:30:39;7.78;;;6.75;;
36191;SDS011;22233;42.708;23.360;2022-08-07T05:33:06;8.15;;;7.35;;
36191;SDS011;22233;42.708;23.360;2022-08-07T05:35:33;7.63;;;6.93;;
36191;SDS011;22233;42.708;23.360;2022-08-07T05:38:02;7.78;;;7.03;;
36191;SDS011;22233;42.708;23.360;2022-08-07T05:40:30;7.72;;;7.03;;
36191;SDS011;22233;42.708;23.360;2022-08-07T05:42:57;7.47;;;6.78;;
36191;SDS011;22233;42.708;23.360;2022-08-07T05:45:24;8.47;;;7.57;;
36191;SDS011;22233;42.708;23.360;2022-08-07T05:47:51;8.32;;;7.45;;
36191;SDS011;22233;42.708;23.360;2022-08-07T05:50:18;8.30;;;7.45;;
36191;SDS011;22233;42.708;23.360;2022-08-07T05:52:45;7.75;;;7.05;;
36191;SDS011;22233;42.708;23.360;2022-08-07T05:55:10;7.95;;;7.25;;
36191;SDS011;22233;42.708;23.360;2022-08-07T05:57:36;7.45;;;6.50;;
36191;SDS011;22233;42.708;23.360;2022-08-07T06:00:04;7.78;;;7.07;;
36191;SDS011;22233;42.708;23.360;2022-08-07T06:02:31;7.75;;;7.05;;
36191;SDS011;22233;42.708;23.360;2022-08-07T06:05:01;9.23;;;7.63;;
36191;SDS011;22233;42.708;23.360;2022-08-07T06:07:30;8.10;;;7.30;;
36191;SDS011;22233;42.708;23.360;2022-08-07T06:09:57;10.95;;;9.38;;
36191;SDS011;22233;42.708;23.360;2022-08-07T06:12:24;11.43;;;8.57;;
36191;SDS011;22233;42.708;23.360;2022-08-07T06:14:49;9.57;;;7.85;;
36191;SDS011;22233;42.708;23.360;2022-08-07T06:17:16;8.65;;;7.55;;
36191;SDS011;22233;42.708;23.360;2022-08-07T06:19:43;7.95;;;7.10;;
36191;SDS011;22233;42.708;23.360;2022-08-07T06:22:09;8.80;;;6.97;;
36191;SDS011;22233;42.708;23.360;2022-08-07T06:24:35;8.48;;;7.68;;
36191;SDS011;22233;42.708;23.360;2022-08-07T06:27:01;11.48;;;7.63;;
36191;SDS011;22233;42.708;23.360;2022-08-07T06:29:27;9.07;;;7.70;;
36191;SDS011;22233;42.708;23.360;2022-08-07T06:31:53;8.80;;;7.90;;
36191;SDS011;22233;42.708;23.360;2022-08-07T06:34:22;9.38;;;8.45;;
36191;SDS011;22233;42.708;23.360;2022-08-07T06:36:48;8.80;;;7.85;;
36191;SDS011;22233;42.708;23.360;2022-08-07T06:39:13;11.73;;;8.20;;
36191;SDS011;22233;42.708;23.360;2022-08-07T06:41:40;11.25;;;9.98;;
36191;SDS011;22233;42.708;23.360;2022-08-07T06:44:10;10.90;;;9.05;;
36191;SDS011;22233;42.708;23.360;2022-08-07T06:46:37;11.85;;;9.05;;
36191;SDS011;22233;42.708;23.360;2022-08-07T06:49:04;10.57;;;8.68;;
36191;SDS011;22233;42.708;23.360;2022-08-07T06:51:30;9.82;;;8.63;;
36191;SDS011;22233;42.708;23.360;2022-08-07T06:53:59;9.88;;;7.70;;
36191;SDS011;22233;42.708;23.360;2022-08-07T06:56:27;8.98;;;8.10;;
36191;SDS011;22233;42.708;23.360;2022-08-07T06:59:13;9.80;;;8.80;;
36191;SDS011;22233;42.708;23.360;2022-08-07T07:01:41;8.13;;;7.30;;
36191;SDS011;22233;42.708;23.360;2022-08-07T07:04:08;8.23;;;7.40;;
36191;SDS011;22233;42.708;23.360;2022-08-07T07:06:34;8.55;;;7.72;;
36191;SDS011;22233;42.708;23.360;2022-08-07T07:14:53;8.35;;;7.55;;
36191;SDS011;22233;42.708;23.360;2022-08-07T07:17:47;8.57;;;7.80;;
36191;SDS011;22233;42.708;23.360;2022-08-07T07:20:21;8.80;;;7.85;;
36191;SDS011;22233;42.708;23.360;2022-08-07T07:22:50;8.43;;;7.43;;
36191;SDS011;22233;42.708;23.360;2022-08-07T07:25:17;11.05;;;8.10;;
36191;SDS011;22233;42.708;23.360;2022-08-07T07:27:49;8.50;;;7.10;;
36191;SDS011;22233;42.708;23.360;2022-08-07T07:30:21;7.93;;;7.13;;
36191;SDS011;22233;42.708;23.360;2022-08-07T07:32:50;9.95;;;8.27;;
36191;SDS011;22233;42.708;23.360;2022-08-07T07:35:17;9.38;;;8.38;;
36191;SDS011;22233;42.708;23.360;2022-08-07T07:37:43;11.00;;;9.90;;
36191;SDS011;22233;42.708;23.360;2022-08-07T07:40:14;12.45;;;11.15;;
36191;SDS011;22233;42.708;23.360;2022-08-07T07:42:43;14.07;;;12.77;;
36191;SDS011;22233;42.708;23.360;2022-08-07T07:45:10;16.33;;;13.38;;
36191;SDS011;22233;42.708;23.360;2022-08-07T07:47:39;16.05;;;14.45;;
36191;SDS011;22233;42.708;23.360;2022-08-07T07:50:07;19.27;;;17.35;;
36191;SDS011;22233;42.708;23.360;2022-08-07T07:52:35;17.95;;;16.27;;
36191;SDS011;22233;42.708;23.360;2022-08-07T07:55:02;14.20;;;12.95;;
36191;SDS011;22233;42.708;23.360;2022-08-07T07:57:29;16.30;;;14.68;;
36191;SDS011;22233;42.708;23.360;2022-08-07T07:59:57;14.18;;;12.60;;
36191;SDS011;22233;42.708;23.360;2022-08-07T08:02:25;16.23;;;12.25;;
36191;SDS011;22233;42.708;23.360;2022-08-07T08:04:53;13.00;;;11.80;;
36191;SDS011;22233;42.708;23.360;2022-08-07T08:07:20;13.02;;;10.27;;
36191;SDS011;22233;42.708;23.360;2022-08-07T08:09:47;11.13;;;10.02;;
36191;SDS011;22233;42.708;23.360;2022-08-07T08:12:14;10.02;;;8.90;;
36191;SDS011;22233;42.708;23.360;2022-08-07T08:14:42;9.43;;;8.43;;
36191;SDS011;22233;42.708;23.360;2022-08-07T08:17:08;8.68;;;7.88;;
36191;SDS011;22233;42.708;23.360;2022-08-07T08:19:36;9.02;;;7.95;;
36191;SDS011;22233;42.708;23.360;2022-08-07T08:22:04;9.00;;;7.63;;
36191;SDS011;22233;42.708;23.360;2022-08-07T08:24:51;7.90;;;7.10;;
36191;SDS011;22233;42.708;23.360;2022-08-07T08:27:37;8.70;;;7.90;;
36191;SDS011;22233;42.708;23.360;2022-08-07T08:30:05;11.18;;;8.40;;
36191;SDS011;22233;42.708;23.360;2022-08-07T08:32:35;8.80;;;7.15;;
36191;SDS011;22233;42.708;23.360;2022-08-07T08:35:04;9.10;;;7.80;;
36191;SDS011;22233;42.708;23.360;2022-08-07T08:37:34;9.65;;;8.75;;
36191;SDS011;22233;42.708;23.360;2022-08-07T08:40:01;9.10;;;7.95;;
36191;SDS011;22233;42.708;23.360;2022-08-07T08:42:42;8.68;;;7.78;;
36191;SDS011;22233;42.708;23.360;2022-08-07T08:47:59;8.50;;;7.68;;
36191;SDS011;22233;42.708;23.360;2022-08-07T08:50:41;10.68;;;8.00;;
36191;SDS011;22233;42.708;23.360;2022-08-07T08:53:18;8.43;;;7.60;;
36191;SDS011;22233;42.708;23.360;2022-08-07T08:55:51;8.18;;;7.38;;
36191;SDS011;22233;42.708;23.360;2022-08-07T08:58:26;8.00;;;7.15;;
36191;SDS011;22233;42.708;23.360;2022-08-07T09:00:59;8.93;;;7.60;;
36191;SDS011;22233;42.708;23.360;2022-08-07T09:03:33;7.88;;;7.13;;
36191;SDS011;22233;42.708;23.360;2022-08-07T09:06:17;8.07;;;7.22;;
36191;SDS011;22233;42.708;23.360;2022-08-07T09:11:44;9.40;;;7.70;;
36191;SDS011;22233;42.708;23.360;2022-08-07T09:14:30;7.77;;;6.97;;
36191;SDS011;22233;42.708;23.360;2022-08-07T09:22:39;9.27;;;6.90;;
36191;SDS011;22233;42.708;23.360;2022-08-07T09:28:11;9.10;;;6.70;;
36191;SDS011;22233;42.708;23.360;2022-08-07T09:41:43;6.95;;;6.22;;
36191;SDS011;22233;42.708;23.360;2022-08-07T09:47:18;7.32;;;6.63;;
36191;SDS011;22233;42.708;23.360;2022-08-07T09:52:30;6.80;;;6.00;;
36191;SDS011;22233;42.708;23.360;2022-08-07T09:55:08;7.75;;;5.63;;
36191;SDS011;22233;42.708;23.360;2022-08-07T10:00:42;7.35;;;6.10;;
36191;SDS011;22233;42.708;23.360;2022-08-07T10:30:15;8.93;;;6.72;;
36191;SDS011;22233;42.708;23.360;2022-08-07T10:35:34;6.32;;;5.72;;
36191;SDS011;22233;42.708;23.360;2022-08-07T10:38:13;6.78;;;6.03;;
36191;SDS011;22233;42.708;23.360;2022-08-07T10:46:41;7.28;;;6.55;;
36191;SDS011;22233;42.708;23.360;2022-08-07T10:49:39;6.90;;;6.20;;
36191;SDS011;22233;42.708;23.360;2022-08-07T10:52:08;8.07;;;6.97;;
36191;SDS011;22233;42.708;23.360;2022-08-07T10:54:55;7.43;;;6.82;;
36191;SDS011;22233;42.708;23.360;2022-08-07T11:00:30;7.70;;;6.90;;
36191;SDS011;22233;42.708;23.360;2022-08-07T11:03:06;8.70;;;7.80;;
36191;SDS011;22233;42.708;23.360;2022-08-07T11:08:57;7.70;;;6.93;;
36191;SDS011;22233;42.708;23.360;2022-08-07T11:13:51;7.78;;;7.07;;
36191;SDS011;22233;42.708;23.360;2022-08-07T11:16:25;6.97;;;6.28;;
36191;SDS011;22233;42.708;23.360;2022-08-07T11:19:08;9.02;;;6.40;;
36191;SDS011;22233;42.708;23.360;2022-08-07T11:22:01;7.00;;;5.95;;
36191;SDS011;22233;42.708;23.360;2022-08-07T11:30:16;7.82;;;7.03;;
36191;SDS011;22233;42.708;23.360;2022-08-07T11:41:43;8.27;;;7.47;;
36191;SDS011;22233;42.708;23.360;2022-08-07T11:44:35;8.65;;;7.35;;
36191;SDS011;22233;42.708;23.360;2022-08-07T11:52:38;8.07;;;7.33;;
36191;SDS011;22233;42.708;23.360;2022-08-07T11:55:25;8.80;;;7.75;;
36191;SDS011;22233;42.708;23.360;2022-08-07T11:58:09;8.10;;;7.28;;
36191;SDS011;22233;42.708;23.360;2022-08-07T12:00:54;7.95;;;7.15;;
36191;SDS011;22233;42.708;23.360;2022-08-07T12:09:27;6.90;;;6.25;;
36191;SDS011;22233;42.708;23.360;2022-08-07T12:14:58;7.82;;;6.20;;
36191;SDS011;22233;42.708;23.360;2022-08-07T12:17:28;6.68;;;6.07;;
36191;SDS011;22233;42.708;23.360;2022-08-07T12:19:58;6.80;;;6.18;;
36191;SDS011;22233;42.708;23.360;2022-08-07T12:30:57;6.85;;;6.22;;
36191;SDS011;22233;42.708;23.360;2022-08-07T12:33:35;7.00;;;6.40;;
36191;SDS011;22233;42.708;23.360;2022-08-07T12:36:01;5.95;;;4.95;;
36191;SDS011;22233;42.708;23.360;2022-08-07T12:38:29;5.75;;;5.25;;
36191;SDS011;22233;42.708;23.360;2022-08-07T12:43:25;5.30;;;4.80;;
36191;SDS011;22233;42.708;23.360;2022-08-07T12:45:58;7.45;;;5.80;;
36191;SDS011;22233;42.708;23.360;2022-08-07T12:48:38;7.43;;;6.38;;
36191;SDS011;22233;42.708;23.360;2022-08-07T12:51:16;6.22;;;5.60;;
36191;SDS011;22233;42.708;23.360;2022-08-07T12:53:48;6.60;;;6.00;;
36191;SDS011;22233;42.708;23.360;2022-08-07T12:58:49;6.47;;;5.95;;
36191;SDS011;22233;42.708;23.360;2022-08-07T13:03:57;6.35;;;5.85;;
36191;SDS011;22233;42.708;23.360;2022-08-07T13:14:42;7.30;;;6.60;;
36191;SDS011;22233;42.708;23.360;2022-08-07T13:17:23;6.82;;;6.18;;
36191;SDS011;22233;42.708;23.360;2022-08-07T13:22:59;7.32;;;6.15;;
36191;SDS011;22233;42.708;23.360;2022-08-07T13:25:43;6.40;;;5.90;;
36191;SDS011;22233;42.708;23.360;2022-08-07T13:28:17;7.82;;;6.18;;
36191;SDS011;22233;42.708;23.360;2022-08-07T13:30:56;6.20;;;5.70;;
36191;SDS011;22233;42.708;23.360;2022-08-07T13:36:00;6.22;;;5.70;;
36191;SDS011;22233;42.708;23.360;2022-08-07T13:38:40;6.43;;;5.82;;
36191;SDS011;22233;42.708;23.360;2022-08-07T13:43:55;6.65;;;6.05;;
36191;SDS011;22233;42.708;23.360;2022-08-07T13:46:27;6.05;;;5.45;;
36191;SDS011;22233;42.708;23.360;2022-08-07T13:48:55;7.22;;;6.32;;
36191;SDS011;22233;42.708;23.360;2022-08-07T13:51:25;8.45;;;5.65;;
36191;SDS011;22233;42.708;23.360;2022-08-07T13:54:03;7.65;;;5.78;;
36191;SDS011;22233;42.708;23.360;2022-08-07T13:56:32;6.05;;;5.55;;
36191;SDS011;22233;42.708;23.360;2022-08-07T13:59:00;6.50;;;5.90;;
36191;SDS011;22233;42.708;23.360;2022-08-07T14:01:27;6.40;;;5.80;;
36191;SDS011;22233;42.708;23.360;2022-08-07T14:03:55;5.88;;;5.22;;
36191;SDS011;22233;42.708;23.360;2022-08-07T14:08:55;6.68;;;6.00;;
36191;SDS011;22233;42.708;23.360;2022-08-07T14:11:22;6.15;;;5.65;;
36191;SDS011;22233;42.708;23.360;2022-08-07T14:13:53;9.55;;;6.07;;
36191;SDS011;22233;42.708;23.360;2022-08-07T14:16:29;5.80;;;5.30;;
36191;SDS011;22233;42.708;23.360;2022-08-07T14:18:59;7.20;;;6.07;;
36191;SDS011;22233;42.708;23.360;2022-08-07T14:21:40;6.53;;;5.93;;
36191;SDS011;22233;42.708;23.360;2022-08-07T14:24:14;6.82;;;6.13;;
36191;SDS011;22233;42.708;23.360;2022-08-07T14:26:49;7.63;;;6.65;;
36191;SDS011;22233;42.708;23.360;2022-08-07T14:29:19;6.65;;;6.03;;
36191;SDS011;22233;42.708;23.360;2022-08-07T14:31:49;7.28;;;6.05;;
36191;SDS011;22233;42.708;23.360;2022-08-07T14:34:16;7.15;;;6.45;;
36191;SDS011;22233;42.708;23.360;2022-08-07T14:36:44;7.32;;;6.55;;
36191;SDS011;22233;42.708;23.360;2022-08-07T14:39:11;7.63;;;6.95;;
36191;SDS011;22233;42.708;23.360;2022-08-07T14:41:37;7.60;;;6.18;;
36191;SDS011;22233;42.708;23.360;2022-08-07T14:44:05;7.22;;;6.47;;
36191;SDS011;22233;42.708;23.360;2022-08-07T14:46:33;8.25;;;7.40;;
36191;SDS011;22233;42.708;23.360;2022-08-07T14:49:01;7.75;;;6.78;;
36191;SDS011;22233;42.708;23.360;2022-08-07T14:51:27;7.45;;;6.53;;
36191;SDS011;22233;42.708;23.360;2022-08-07T14:53:56;6.97;;;6.32;;
36191;SDS011;22233;42.708;23.360;2022-08-07T14:56:23;7.30;;;6.60;;
36191;SDS011;22233;42.708;23.360;2022-08-07T14:58:53;7.55;;;6.95;;
36191;SDS011;22233;42.708;23.360;2022-08-07T15:01:24;7.30;;;6.53;;
36191;SDS011;22233;42.708;23.360;2022-08-07T15:03:57;8.23;;;6.47;;
36191;SDS011;22233;42.708;23.360;2022-08-07T15:06:24;7.18;;;6.57;;
36191;SDS011;22233;42.708;23.360;2022-08-07T15:08:51;8.32;;;7.55;;
36191;SDS011;22233;42.708;23.360;2022-08-07T15:11:21;7.68;;;6.97;;
36191;SDS011;22233;42.708;23.360;2022-08-07T15:16:17;8.77;;;7.93;;
36191;SDS011;22233;42.708;23.360;2022-08-07T15:18:49;9.32;;;6.85;;
36191;SDS011;22233;42.708;23.360;2022-08-07T15:21:22;8.25;;;7.22;;
36191;SDS011;22233;42.708;23.360;2022-08-07T15:23:57;7.55;;;6.32;;
36191;SDS011;22233;42.708;23.360;2022-08-07T15:26:44;8.00;;;7.20;;
36191;SDS011;22233;42.708;23.360;2022-08-07T15:29:16;7.90;;;7.10;;
36191;SDS011;22233;42.708;23.360;2022-08-07T15:31:46;7.65;;;6.95;;
36191;SDS011;22233;42.708;23.360;2022-08-07T15:34:15;7.55;;;6.75;;
36191;SDS011;22233;42.708;23.360;2022-08-07T15:36:42;12.43;;;7.80;;
36191;SDS011;22233;42.708;23.360;2022-08-07T15:41:38;7.93;;;6.88;;
36191;SDS011;22233;42.708;23.360;2022-08-07T15:44:24;8.25;;;7.00;;
36191;SDS011;22233;42.708;23.360;2022-08-07T15:46:58;7.32;;;6.57;;
36191;SDS011;22233;42.708;23.360;2022-08-07T15:49:28;7.75;;;7.03;;
36191;SDS011;22233;42.708;23.360;2022-08-07T15:51:55;8.02;;;7.30;;
36191;SDS011;22233;42.708;23.360;2022-08-07T15:54:23;7.95;;;7.25;;
36191;SDS011;22233;42.708;23.360;2022-08-07T15:56:56;7.28;;;6.68;;
36191;SDS011;22233;42.708;23.360;2022-08-07T15:59:25;7.32;;;6.72;;
36191;SDS011;22233;42.708;23.360;2022-08-07T16:01:53;8.75;;;7.82;;
36191;SDS011;22233;42.708;23.360;2022-08-07T16:04:20;7.45;;;6.75;;
36191;SDS011;22233;42.708;23.360;2022-08-07T16:06:53;7.85;;;7.10;;
36191;SDS011;22233;42.708;23.360;2022-08-07T16:09:21;9.13;;;7.30;;
36191;SDS011;22233;42.708;23.360;2022-08-07T16:11:56;8.13;;;7.32;;
36191;SDS011;22233;42.708;23.360;2022-08-07T16:30:53;8.77;;;7.97;;
36191;SDS011;22233;42.708;23.360;2022-08-07T16:33:26;9.93;;;7.40;;
36191;SDS011;22233;42.708;23.360;2022-08-07T16:36:06;8.45;;;7.43;;
36191;SDS011;22233;42.708;23.360;2022-08-07T16:47:32;10.38;;;9.38;;
36191;SDS011;22233;42.708;23.360;2022-08-07T17:00:38;7.78;;;7.07;;
36191;SDS011;22233;42.708;23.360;2022-08-07T17:11:45;7.43;;;6.60;;
36191;SDS011;22233;42.708;23.360;2022-08-07T17:14:17;8.23;;;5.90;;
36191;SDS011;22233;42.708;23.360;2022-08-07T17:16:59;7.50;;;6.63;;
36191;SDS011;22233;42.708;23.360;2022-08-07T17:19:40;7.15;;;6.45;;
36191;SDS011;22233;42.708;23.360;2022-08-07T17:22:13;9.73;;;8.73;;
36191;SDS011;22233;42.708;23.360;2022-08-07T17:27:58;7.88;;;6.80;;
36191;SDS011;22233;42.708;23.360;2022-08-07T17:33:25;7.47;;;6.53;;
36191;SDS011;22233;42.708;23.360;2022-08-07T17:35:58;11.93;;;7.15;;
36191;SDS011;22233;42.708;23.360;2022-08-07T17:44:13;7.53;;;6.72;;
36191;SDS011;22233;42.708;23.360;2022-08-07T17:47:33;8.23;;;7.28;;
36191;SDS011;22233;42.708;23.360;2022-08-07T17:50:00;10.15;;;8.00;;
36191;SDS011;22233;42.708;23.360;2022-08-07T17:52:39;8.90;;;7.97;;
36191;SDS011;22233;42.708;23.360;2022-08-07T17:55:11;8.40;;;7.60;;
36191;SDS011;22233;42.708;23.360;2022-08-07T18:00:08;8.90;;;8.00;;
36191;SDS011;22233;42.708;23.360;2022-08-07T18:16:56;8.27;;;7.57;;
36191;SDS011;22233;42.708;23.360;2022-08-07T18:19:43;9.05;;;8.25;;
36191;SDS011;22233;42.708;23.360;2022-08-07T18:22:34;9.68;;;8.63;;
36191;SDS011;22233;42.708;23.360;2022-08-07T18:25:04;9.45;;;8.30;;
36191;SDS011;22233;42.708;23.360;2022-08-07T18:30:04;9.30;;;8.32;;
36191;SDS011;22233;42.708;23.360;2022-08-07T18:38:19;11.05;;;8.77;;
36191;SDS011;22233;42.708;23.360;2022-08-07T18:43:32;10.13;;;9.13;;
36191;SDS011;22233;42.708;23.360;2022-08-07T18:46:26;9.60;;;8.77;;
36191;SDS011;22233;42.708;23.360;2022-08-07T18:57:30;10.05;;;9.05;;
36191;SDS011;22233;42.708;23.360;2022-08-07T19:03:46;9.82;;;8.77;;
36191;SDS011;22233;42.708;23.360;2022-08-07T19:06:06;10.10;;;9.10;;
36191;SDS011;22233;42.708;23.360;2022-08-07T19:11:26;8.73;;;7.80;;
36191;SDS011;22233;42.708;23.360;2022-08-07T19:16:51;9.80;;;8.00;;
36191;SDS011;22233;42.708;23.360;2022-08-07T19:24:41;9.00;;;8.20;;
36191;SDS011;22233;42.708;23.360;2022-08-07T19:27:11;10.73;;;7.88;;